Time;durP1;ratioP1;P1;durP2;ratioP2;P2;SDS_P1;SDS_P2;PMS_P1;PMS_P2;Temp;Humidity;BMP_temperature;BMP_pressure;BME280_temperature;BME280_humidity;BME280_pressure;Samples;Min_cycle;Max_cycle;Signal;HPM_P1;HPM_P2
2022/03/11 00:02:13;;;;;;;42.08;19.55;;;;;;;;;;4850265;29;20079;-72
2022/03/11 00:04:39;;;;;;;41.55;19.33;;;;;;;;;;4853850;29;20053;-72
2022/03/11 00:07:23;;;;;;;37.60;18.48;;;;;;;;;;4881523;29;20124;-72
2022/03/11 00:09:50;;;;;;;40.03;18.90;;;;;;;;;;4849303;29;20049;-72
2022/03/11 00:12:16;;;;;;;43.50;18.67;;;;;;;;;;4865448;29;20612;-72
2022/03/11 00:14:42;;;;;;;41.75;20.60;;;;;;;;;;4865411;29;20435;-73
2022/03/11 00:17:08;;;;;;;39.70;18.88;;;;;;;;;;4865964;29;20048;-72
2022/03/11 00:19:34;;;;;;;40.53;19.35;;;;;;;;;;4865028;29;20041;-72
2022/03/11 00:22:01;;;;;;;39.75;19.17;;;;;;;;;;4849886;29;20052;-72
2022/03/11 00:24:27;;;;;;;38.53;19.13;;;;;;;;;;4862167;29;20448;-72
2022/03/11 00:26:53;;;;;;;39.33;18.90;;;;;;;;;;4854547;29;20052;-73
2022/03/11 00:29:20;;;;;;;44.40;19.65;;;;;;;;;;4865287;29;20108;-72
2022/03/11 00:31:46;;;;;;;36.90;18.75;;;;;;;;;;4846120;29;20065;-72
2022/03/11 00:34:12;;;;;;;55.17;20.83;;;6.20;96.30;;;;;;4852443;29;20562;-72
2022/03/11 00:36:38;;;;;;;35.67;19.83;;;;;;;;;;4875192;29;20033;-73
2022/03/11 00:39:04;;;;;;;37.47;18.75;;;;;;;;;;4849603;29;20044;-73
2022/03/11 00:41:30;;;;;;;43.83;19.00;;;;;;;;;;4848678;29;20052;-73
2022/03/11 00:43:57;;;;;;;41.40;19.73;;;;;;;;;;4848459;29;20144;-72
2022/03/11 00:46:23;;;;;;;43.92;21.13;;;;;;;;;;4848624;29;20082;-72
2022/03/11 00:48:49;;;;;;;42.17;20.45;;;;;;;;;;4857960;29;20061;-73
2022/03/11 00:51:15;;;;;;;43.38;19.95;;;;;;;;;;4846961;29;20041;-72
2022/03/11 00:53:42;;;;;;;41.00;19.38;;;;;;;;;;4846477;29;20120;-72
2022/03/11 00:56:08;;;;;;;44.95;19.60;;;;;;;;;;4846183;29;20045;-73
2022/03/11 00:58:34;;;;;;;41.97;21.00;;;;;;;;;;4846463;29;20561;-72
2022/03/11 01:01:01;;;;;;;40.80;20.38;;;;;;;;;;4846169;29;20410;-72
2022/03/11 01:03:27;;;;;;;46.55;20.80;;;;;;;;;;4846413;29;20050;-72
2022/03/11 01:05:53;;;;;;;46.28;20.17;;;;;;;;;;4830928;29;20053;-72
2022/03/11 01:08:19;;;;;;;44.83;20.00;;;;;;;;;;4846204;29;20136;-72
2022/03/11 01:10:45;;;;;;;47.28;19.85;;;;;;;;;;4846031;29;20048;-72
2022/03/11 01:13:11;;;;;;;39.50;20.52;;;;;;;;;;4846042;29;20053;-72
2022/03/11 01:15:38;;;;;;;38.70;19.85;;;;;;;;;;4833800;29;20456;-72
2022/03/11 01:18:04;;;;;;;42.92;20.25;;;;;;;;;;4842173;29;20042;-72
2022/03/11 01:20:30;;;;;;;47.97;21.95;;;;;;;;;;4830467;29;20499;-72
2022/03/11 01:22:56;;;;;;;37.50;19.35;;;;;;;;;;4846141;29;20521;-72
2022/03/11 01:25:22;;;;;;;45.33;20.63;;;;;;;;;;4846124;29;20480;-72
2022/03/11 01:27:48;;;;;;;46.92;21.85;;;;;;;;;;4845867;29;20074;-72
2022/03/11 01:30:16;;;;;;;45.60;21.85;;;;;;;;;;4845669;29;20538;-72
2022/03/11 01:32:43;;;;;;;44.05;20.15;;;5.60;97.70;;;;;;4845606;29;20049;-72
2022/03/11 01:35:10;;;;;;;45.10;20.13;;;;;;;;;;4844586;29;20129;-72
2022/03/11 01:37:36;;;;;;;48.97;21.40;;;;;;;;;;4841558;29;20076;-72
2022/03/11 01:40:05;;;;;;;44.03;20.02;;;5.40;97.80;;;;;;4845358;29;20049;-72
2022/03/11 01:42:34;;;;;;;48.75;20.67;;;;;;;;;;4845655;29;20490;-72
2022/03/11 01:45:00;;;;;;;42.05;20.35;;;;;;;;;;4845374;29;20053;-72
2022/03/11 01:47:26;;;;;;;43.60;20.30;;;;;;;;;;4845875;29;20068;-72
2022/03/11 01:49:53;;;;;;;40.35;19.88;;;;;;;;;;4856452;29;20057;-72
2022/03/11 01:52:18;;;;;;;42.05;20.83;;;5.50;99.90;;;;;;4845534;29;20060;-72
2022/03/11 01:54:45;;;;;;;48.03;19.40;;;;;;;;;;4841627;29;20054;-72
2022/03/11 01:57:12;;;;;;;37.83;19.90;;;5.10;98.10;;;;;;4827204;29;20110;-73
2022/03/11 01:59:39;;;;;;;44.83;20.02;;;;;;;;;;4831774;29;20045;-72
2022/03/11 02:02:06;;;;;;;43.28;20.42;;;5.00;98.20;;;;;;4845057;29;20083;-72
2022/03/11 02:04:32;;;;;;;44.60;20.02;;;;;;;;;;4860513;29;20487;-73
2022/03/11 02:06:58;;;;;;;41.13;19.85;;;;;;;;;;4845150;29;20046;-72
2022/03/11 02:09:25;;;;;;;43.88;20.15;;;;;;;;;;4844750;29;20049;-72
2022/03/11 02:11:51;;;;;;;38.20;19.67;;;;;;;;;;4845192;29;20077;-72
2022/03/11 02:14:17;;;;;;;44.50;19.35;;;;;;;;;;4841668;29;20404;-72
2022/03/11 02:16:43;;;;;;;39.28;19.83;;;;;;;;;;4844924;29;20041;-72
2022/03/11 02:19:09;;;;;;;40.55;19.42;;;5.70;99.90;;;;;;4845227;29;20128;-72
2022/03/11 02:21:38;;;;;;;39.10;18.98;;;;;;;;;;4841194;29;20523;-72
2022/03/11 02:24:07;;;;;;;42.75;19.33;;;;;;;;;;4827184;29;20467;-72
2022/03/11 02:26:33;;;;;;;41.15;18.30;;;;;;;;;;4823883;29;20143;-72
2022/03/11 02:28:59;;;;;;;50.35;18.77;;;4.80;98.40;;;;;;4844937;29;20059;-72
2022/03/11 02:31:29;;;;;;;41.75;18.88;;;4.90;98.70;;;;;;4844455;29;20046;-73
2022/03/11 02:33:56;;;;;;;37.30;18.52;;;;;;;;;;4844581;29;20056;-72
2022/03/11 02:36:22;;;;;;;38.47;17.70;;;;;;;;;;4844536;29;20402;-72
2022/03/11 02:38:49;;;;;;;38.08;18.48;;;;;;;;;;4823792;29;20097;-68
2022/03/11 02:41:15;;;;;;;36.35;18.25;;;;;;;;;;4832942;29;20045;-72
2022/03/11 02:43:42;;;;;;;38.05;18.48;;;;;;;;;;4843690;29;20053;-73
2022/03/11 02:46:09;;;;;;;39.90;17.40;;;4.60;98.50;;;;;;4843696;29;20120;-73
2022/03/11 02:48:35;;;;;;;37.95;17.70;;;;;;;;;;4844608;29;20056;-72
2022/03/11 02:51:02;;;;;;;41.88;18.25;;;;;;;;;;4850727;29;20057;-72
2022/03/11 02:53:28;;;;;;;43.05;17.60;;;;;;;;;;4860069;29;20126;-72
2022/03/11 02:55:54;;;;;;;42.40;18.83;;;;;;;;;;4861799;29;20041;-72
2022/03/11 02:58:20;;;;;;;39.75;18.00;;;;;;;;;;4861662;29;20040;-72
2022/03/11 03:00:46;;;;;;;38.30;18.17;;;;;;;;;;4861553;29;20131;-72
2022/03/11 03:03:12;;;;;;;38.55;17.33;;;;;;;;;;4837874;29;20059;-72
2022/03/11 03:05:39;;;;;;;39.72;17.77;;;;;;;;;;4861664;29;20490;-72
2022/03/11 03:08:05;;;;;;;37.35;17.83;;;;;;;;;;4860328;29;20077;-73
2022/03/11 03:10:31;;;;;;;37.08;17.45;;;;;;;;;;4861661;29;20037;-72
2022/03/11 03:12:57;;;;;;;39.05;17.08;;;;;;;;;;4850443;29;20051;-72
2022/03/11 03:15:23;;;;;;;42.42;17.40;;;;;;;;;;4861556;29;20111;-73
2022/03/11 03:17:49;;;;;;;38.47;16.77;;;;;;;;;;4859627;29;20073;-73
2022/03/11 03:20:16;;;;;;;40.95;17.67;;;;;;;;;;4861638;29;20124;-73
2022/03/11 03:22:42;;;;;;;42.55;17.58;;;;;;;;;;4841395;29;20049;-72
2022/03/11 03:25:12;;;;;;;43.03;18.02;;;;;;;;;;4853785;29;20048;-72
2022/03/11 03:27:38;;;;;;;37.83;17.95;;;;;;;;;;4848483;29;20038;-72
2022/03/11 03:30:05;;;;;;;39.33;17.80;;;4.50;99.50;;;;;;4852034;29;20603;-72
2022/03/11 03:32:31;;;;;;;42.03;17.33;;;;;;;;;;4876862;29;20045;-72
2022/03/11 03:34:57;;;;;;;42.33;17.88;;;;;;;;;;4861236;29;20045;-72
2022/03/11 03:37:23;;;;;;;37.30;16.95;;;;;;;;;;4861043;29;20053;-72
2022/03/11 03:39:49;;;;;;;41.75;17.75;;;;;;;;;;4862018;29;20073;-72
2022/03/11 03:42:16;;;;;;;43.10;19.05;;;;;;;;;;4861411;29;20079;-72
2022/03/11 03:44:42;;;;;;;41.10;18.42;;;;;;;;;;4861142;29;20545;-72
2022/03/11 03:47:08;;;;;;;45.17;18.50;;;;;;;;;;4861420;29;20051;-73
2022/03/11 03:49:34;;;;;;;41.72;18.35;;;;;;;;;;4861224;29;20057;-72
2022/03/11 03:52:01;;;;;;;43.20;18.42;;;;;;;;;;4852565;29;20068;-72
2022/03/11 03:54:27;;;;;;;38.72;17.70;;;;;;;;;;4861346;29;20068;-72
2022/03/11 03:56:53;;;;;;;39.35;18.90;;;;;;;;;;4861148;29;20116;-72
2022/03/11 03:59:19;;;;;;;41.40;19.63;;;;;;;;;;4849916;29;20483;-72
2022/03/11 04:01:45;;;;;;;41.55;18.58;;;;;;;;;;4861259;29;20056;-73
2022/03/11 04:04:12;;;;;;;49.10;19.33;;;4.20;99.80;;;;;;4850637;29;20512;-72
2022/03/11 04:06:40;;;;;;;45.63;19.92;;;4.30;99.90;;;;;;4861458;29;20068;-72
2022/03/11 04:09:07;;;;;;;42.92;19.42;;;4.20;99.90;;;;;;4859663;29;20499;-72
2022/03/11 04:11:33;;;;;;;40.60;18.75;;;;;;;;;;4845762;29;20056;-72
2022/03/11 04:14:00;;;;;;;52.65;19.60;;;;;;;;;;4859642;29;20137;-72
2022/03/11 04:16:26;;;;;;;43.53;19.48;;;4.30;99.70;;;;;;4861431;29;20060;-72
2022/03/11 04:18:53;;;;;;;47.33;19.85;;;;;;;;;;4861533;29;20100;-73
2022/03/11 04:21:19;;;;;;;41.65;18.25;;;;;;;;;;4864527;29;20037;-73
2022/03/11 04:23:46;;;;;;;51.78;19.77;;;4.10;99.90;;;;;;4854412;29;20508;-73
2022/03/11 04:26:13;;;;;;;49.53;19.67;;;;;;;;;;4857035;29;20041;-72
2022/03/11 04:28:39;;;;;;;46.83;20.40;;;;;;;;;;4855438;29;20109;-72
2022/03/11 04:31:07;;;;;;;43.92;19.77;;;4.10;99.90;;;;;;4858805;29;20045;-72
2022/03/11 04:33:34;;;;;;;44.53;20.70;;;;;;;;;;4880608;29;20131;-72
2022/03/11 04:36:00;;;;;;;47.97;20.40;;;;;;;;;;4864446;29;20059;-73
2022/03/11 04:38:26;;;;;;;45.90;20.45;;;;;;;;;;4864050;29;20378;-73
2022/03/11 04:40:52;;;;;;;50.92;19.83;;;;;;;;;;4864039;29;21380;-72
2022/03/11 04:43:19;;;;;;;63.83;23.30;;;;;;;;;;4855215;29;20053;-73
2022/03/11 04:45:45;;;;;;;54.75;20.48;;;;;;;;;;4854270;29;20045;-73
2022/03/11 04:48:12;;;;;;;47.85;21.35;;;;;;;;;;4863703;29;20048;-72
2022/03/11 04:50:38;;;;;;;50.33;22.38;;;;;;;;;;4863721;29;20390;-73
2022/03/11 04:53:04;;;;;;;49.13;21.35;;;;;;;;;;4863600;29;20112;-73
2022/03/11 04:55:30;;;;;;;50.35;21.15;;;;;;;;;;4863656;29;20053;-72
2022/03/11 04:57:56;;;;;;;51.72;20.90;;;;;;;;;;4858599;29;20041;-73
2022/03/11 05:00:22;;;;;;;51.58;21.60;;;;;;;;;;4846195;29;20044;-72
2022/03/11 05:02:48;;;;;;;53.25;21.52;;;;;;;;;;4863237;29;20040;-72
2022/03/11 05:05:15;;;;;;;48.50;21.33;;;;;;;;;;4837057;29;20047;-72
2022/03/11 05:07:42;;;;;;;49.42;21.50;;;;;;;;;;4863414;29;20516;-72
2022/03/11 05:10:14;;;;;;;48.67;22.13;;;4.00;99.90;;;;;;4862825;29;20056;-72
2022/03/11 05:12:40;;;;;;;49.35;21.65;;;;;;;;;;4861671;29;20045;-72
2022/03/11 05:15:07;;;;;;;57.53;21.90;;;4.10;99.90;;;;;;4856470;29;20060;-72
2022/03/11 05:17:33;;;;;;;51.20;21.70;;;;;;;;;;4878966;29;20045;-73
2022/03/11 05:19:59;;;;;;;51.65;22.38;;;;;;;;;;4855195;29;20080;-72
2022/03/11 05:22:25;;;;;;;49.13;22.88;;;;;;;;;;4853492;29;20124;-72
2022/03/11 05:24:52;;;;;;;50.35;22.25;;;3.50;99.90;;;;;;4863176;29;20398;-73
2022/03/11 05:27:18;;;;;;;52.25;22.80;;;;;;;;;;4863049;29;20097;-72
2022/03/11 05:29:44;;;;;;;60.97;23.00;;;;;;;;;;4863283;29;20037;-73
2022/03/11 05:32:10;;;;;;;60.90;22.70;;;;;;;;;;4854463;29;20041;-73
2022/03/11 05:34:39;;;;;;;56.22;22.52;;;;;;;;;;4862890;29;20053;-73
2022/03/11 05:37:06;;;;;;;54.30;23.55;;;;;;;;;;4835578;29;20045;-73
2022/03/11 05:39:32;;;;;;;67.03;23.45;;;;;;;;;;4845749;29;20494;-73
2022/03/11 05:41:58;;;;;;;56.92;22.92;;;;;;;;;;4862571;29;20509;-72
2022/03/11 05:44:24;;;;;;;56.22;23.10;;;;;;;;;;4846360;29;20076;-72
2022/03/11 05:46:52;;;;;;;58.30;23.73;;;;;;;;;;4853164;29;20068;-72
2022/03/11 05:49:18;;;;;;;58.75;24.55;;;;;;;;;;4854527;29;20069;-72
2022/03/11 05:51:45;;;;;;;50.85;22.85;;;;;;;;;;4838264;29;20116;-72
2022/03/11 05:54:11;;;;;;;66.82;24.45;;;;;;;;;;4855384;29;20450;-72
2022/03/11 05:56:37;;;;;;;70.43;27.23;;;;;;;;;;4854557;29;20045;-72
2022/03/11 05:59:04;;;;;;;55.72;23.75;;;;;;;;;;4879222;29;20478;-72
2022/03/11 06:01:31;;;;;;;60.25;26.05;;;;;;;;;;4855597;29;20061;-72
2022/03/11 06:03:57;;;;;;;57.33;24.40;;;;;;;;;;4861875;29;20510;-72
2022/03/11 06:06:23;;;;;;;62.70;24.80;;;;;;;;;;4857489;29;20041;-72
2022/03/11 06:08:49;;;;;;;60.72;24.92;;;;;;;;;;4853676;29;20045;-72
2022/03/11 06:11:15;;;;;;;57.42;24.00;;;;;;;;;;4862079;29;20047;-72
2022/03/11 06:13:41;;;;;;;67.05;24.50;;;;;;;;;;4861934;29;20045;-72
2022/03/11 06:16:07;;;;;;;65.55;25.98;;;;;;;;;;4862662;29;20434;-72
2022/03/11 06:18:33;;;;;;;73.95;25.50;;;;;;;;;;4861910;29;20564;-71
2022/03/11 06:20:59;;;;;;;68.60;24.65;;;;;;;;;;4862128;29;20053;-72
2022/03/11 06:23:25;;;;;;;65.32;24.95;;;;;;;;;;4862195;29;20087;-72
2022/03/11 06:25:52;;;;;;;61.30;24.13;;;;;;;;;;4853987;29;20049;-72
2022/03/11 06:28:18;;;;;;;60.80;25.45;;;;;;;;;;4861958;29;20052;-72
2022/03/11 06:30:46;;;;;;;58.22;24.63;;;;;;;;;;4861857;29;20044;-73
2022/03/11 06:33:12;;;;;;;61.65;26.08;;;;;;;;;;4861221;29;20076;-73
2022/03/11 06:35:39;;;;;;;63.78;25.15;;;;;;;;;;4860194;29;20041;-73
2022/03/11 06:38:05;;;;;;;56.90;25.70;;;;;;;;;;4862126;29;20040;-73
2022/03/11 06:40:31;;;;;;;62.88;25.02;;;;;;;;;;4861251;29;20443;-73
2022/03/11 06:42:57;;;;;;;59.05;25.67;;;;;;;;;;4859925;29;20124;-73
2022/03/11 06:45:23;;;;;;;65.47;24.92;;;;;;;;;;4835501;29;20517;-73
2022/03/11 06:47:50;;;;;;;70.43;27.55;;;;;;;;;;4860859;29;20044;-73
2022/03/11 06:50:17;;;;;;;63.28;23.95;;;3.80;99.90;;;;;;4849793;29;20053;-73
2022/03/11 06:52:44;;;;;;;67.35;26.02;;;3.90;99.90;;;;;;4843588;29;20041;-73
2022/03/11 06:55:10;;;;;;;68.80;26.02;;;;;;;;;;4842977;29;20056;-73
2022/03/11 06:57:36;;;;;;;68.90;26.92;;;;;;;;;;4843742;29;20114;-73
2022/03/11 07:00:07;;;;;;;66.25;25.83;;;4.10;99.90;;;;;;4840806;29;20046;-73
2022/03/11 07:02:34;;;;;;;67.88;24.33;;;;;;;;;;4843237;29;20041;-73
2022/03/11 07:05:00;;;;;;;62.35;24.58;;;;;;;;;;4843300;29;20057;-74
2022/03/11 07:07:29;;;;;;;73.20;26.30;;;;;;;;;;4842522;29;20046;-73
2022/03/11 07:09:55;;;;;;;59.90;25.77;;;;;;;;;;4842595;29;20045;-74
2022/03/11 07:12:21;;;;;;;60.75;25.20;;;;;;;;;;4843191;29;20052;-73
2022/03/11 07:14:48;;;;;;;65.35;26.05;;;;;;;;;;4843154;29;20064;-76
2022/03/11 07:17:15;;;;;;;65.80;26.42;;;;;;;;;;4842964;29;20045;-73
2022/03/11 07:19:41;;;;;;;59.72;24.45;;;;;;;;;;4843523;29;20077;-73
2022/03/11 07:22:07;;;;;;;65.38;25.38;;;;;;;;;;4840793;29;20042;-73
2022/03/11 07:24:33;;;;;;;60.85;25.15;;;;;;;;;;4843154;29;20060;-72
2022/03/11 07:27:00;;;;;;;60.45;25.30;;;;;;;;;;4827757;29;20049;-72
2022/03/11 07:29:26;;;;;;;63.88;25.65;;;;;;;;;;4842564;29;20045;-73
2022/03/11 07:31:52;;;;;;;62.97;25.58;;;;;;;;;;4843077;29;20510;-73
2022/03/11 07:34:18;;;;;;;66.03;26.27;;;;;;;;;;4843083;29;20048;-73
2022/03/11 07:36:44;;;;;;;58.53;24.55;;;;;;;;;;4843013;29;20125;-73
2022/03/11 07:39:11;;;;;;;63.53;26.55;;;4.60;99.90;;;;;;4842852;29;20465;-72
2022/03/11 07:41:37;;;;;;;62.95;24.95;;;;;;;;;;4842901;29;20038;-73
2022/03/11 07:44:04;;;;;;;67.97;25.90;;;4.60;99.90;;;;;;4843050;29;20128;-75
2022/03/11 07:46:30;;;;;;;63.83;25.02;;;;;;;;;;4843119;29;20045;-75
2022/03/11 07:48:57;;;;;;;58.35;24.95;;;;;;;;;;4844100;29;20088;-73
2022/03/11 07:51:25;;;;;;;65.45;24.50;;;;;;;;;;4861123;29;20057;-73
2022/03/11 07:53:51;;;;;;;63.35;25.63;;;;;;;;;;4863099;29;20447;-73
2022/03/11 07:56:17;;;;;;;61.03;25.25;;;;;;;;;;4864702;29;20048;-73
2022/03/11 07:58:44;;;;;;;65.93;25.13;;;;;;;;;;4864724;29;20978;-73
2022/03/11 08:01:10;;;;;;;63.63;25.00;;;;;;;;;;4864951;29;20041;-72
2022/03/11 08:03:37;;;;;;;58.53;25.35;;;;;;;;;;4864415;29;20045;-73
2022/03/11 08:06:04;;;;;;;60.75;24.00;;;5.10;99.90;;;;;;4865579;29;20076;-73
2022/03/11 08:08:30;;;;;;;51.13;23.08;;;;;;;;;;4865719;29;20056;-73
2022/03/11 08:10:56;;;;;;;55.58;24.27;;;;;;;;;;4848261;29;20049;-74
2022/03/11 08:13:23;;;;;;;61.33;24.95;;;;;;;;;;4856250;29;20054;-73
2022/03/11 08:15:49;;;;;;;62.38;24.90;;;;;;;;;;4855069;29;20069;-74
2022/03/11 08:18:15;;;;;;;60.90;24.23;;;;;;;;;;4846954;29;20503;-73
2022/03/11 08:20:41;;;;;;;53.55;25.30;;;;;;;;;;4864185;29;20128;-73
2022/03/11 08:23:08;;;;;;;60.47;24.20;;;;;;;;;;4856212;29;20132;-73
2022/03/11 08:25:35;;;;;;;50.60;23.80;;;5.50;99.90;;;;;;4862023;29;20061;-73
2022/03/11 08:28:02;;;;;;;65.60;25.70;;;;;;;;;;4864600;29;20055;-73
2022/03/11 08:30:29;;;;;;;55.83;23.67;;;;;;;;;;4848210;29;20038;-73
2022/03/11 08:32:56;;;;;;;53.05;24.08;;;;;;;;;;4864221;29;20096;-73
2022/03/11 08:35:22;;;;;;;60.60;25.40;;;;;;;;;;4864185;29;20045;-73
2022/03/11 08:37:48;;;;;;;54.03;22.73;;;;;;;;;;4862360;29;20078;-73
2022/03/11 08:40:14;;;;;;;61.53;24.95;;;;;;;;;;4864370;29;20127;-73
2022/03/11 08:42:41;;;;;;;55.78;23.52;;;5.90;99.40;;;;;;4862977;29;20049;-73
2022/03/11 08:45:10;;;;;;;53.95;21.83;;;5.80;99.60;;;;;;4863918;29;20561;-73
2022/03/11 08:47:36;;;;;;;51.10;22.25;;;;;;;;;;4863518;29;20045;-73
2022/03/11 08:50:05;;;;;;;50.83;23.40;;;;;;;;;;4864710;29;20059;-73
2022/03/11 08:52:31;;;;;;;55.80;23.73;;;6.00;99.90;;;;;;4863951;29;20072;-75
2022/03/11 08:54:58;;;;;;;46.40;21.83;;;;;;;;;;4862787;29;20045;-74
2022/03/11 08:57:24;;;;;;;51.72;23.35;;;;;;;;;;4863785;29;21351;-74
2022/03/11 08:59:50;;;;;;;47.53;21.83;;;;;;;;;;4859674;29;20044;-74
2022/03/11 09:02:17;;;;;;;50.20;22.65;;;;;;;;;;4856727;29;20052;-74
2022/03/11 09:04:43;;;;;;;50.33;21.65;;;;;;;;;;4856511;29;20485;-73
2022/03/11 09:07:10;;;;;;;50.53;23.35;;;;;;;;;;4842512;29;20486;-74
2022/03/11 09:09:36;;;;;;;53.30;22.95;;;6.60;98.20;;;;;;4837100;29;20041;-73
2022/03/11 09:12:03;;;;;;;55.08;22.27;;;6.90;99.90;;;;;;4857931;29;20135;-73
2022/03/11 09:14:30;;;;;;;48.35;22.75;;;6.60;98.30;;;;;;4863560;29;20085;-73
2022/03/11 09:16:56;;;;;;;49.08;22.00;;;;;;;;;;4863211;29;20040;-74
2022/03/11 09:19:22;;;;;;;56.03;23.35;;;;;;;;;;4851292;29;20041;-73
2022/03/11 09:21:49;;;;;;;47.53;22.08;;;;;;;;;;4852934;29;20037;-74
2022/03/11 09:24:15;;;;;;;50.90;22.48;;;;;;;;;;4847683;29;20482;-74
2022/03/11 09:26:41;;;;;;;45.00;22.70;;;;;;;;;;4861350;29;20056;-74
2022/03/11 09:29:08;;;;;;;46.88;22.02;;;;;;;;;;4863518;29;20506;-73
2022/03/11 09:31:34;;;;;;;44.35;21.50;;;;;;;;;;4863016;29;20045;-73
2022/03/11 09:34:00;;;;;;;51.55;21.23;;;;;;;;;;4863021;29;20542;-73
2022/03/11 09:36:26;;;;;;;49.92;21.50;;;;;;;;;;4847441;29;20037;-74
2022/03/11 09:38:52;;;;;;;49.20;22.42;;;;;;;;;;4863004;29;20037;-74
2022/03/11 09:41:20;;;;;;;48.30;20.95;;;7.50;97.10;;;;;;4854937;29;20073;-74
2022/03/11 09:43:47;;;;;;;44.58;21.70;;;;;;;;;;4877154;29;20051;-74
2022/03/11 09:46:14;;;;;;;44.88;20.10;;;;;;;;;;4860033;29;20072;-74
2022/03/11 09:48:41;;;;;;;47.83;21.42;;;8.10;99.90;;;;;;4849977;29;20435;-73
2022/03/11 09:51:09;;;;;;;49.70;21.65;;;;;;;;;;4856734;29;20065;-74
2022/03/11 09:53:36;;;;;;;52.38;23.08;;;;;;;;;;4854632;29;20071;-74
2022/03/11 09:56:02;;;;;;;46.08;22.15;;;;;;;;;;4878091;29;20037;-74
2022/03/11 09:58:28;;;;;;;48.45;22.65;;;;;;;;;;4856515;29;20093;-74
2022/03/11 10:00:55;;;;;;;45.45;21.75;;;;;;;;;;4841939;29;20044;-74
2022/03/11 10:03:22;;;;;;;40.50;19.98;;;;;;;;;;4854464;29;20056;-74
2022/03/11 10:05:51;;;;;;;43.15;21.08;;;8.10;95.80;;;;;;4855252;29;20072;-74
2022/03/11 10:08:38;;;;;;;49.03;21.02;;;8.20;96.20;;;;;;4860976;29;20049;-74
2022/03/11 10:11:17;;;;;;;43.55;21.58;;;8.20;96.40;;;;;;4839269;29;20068;-74
2022/03/11 10:13:43;;;;;;;44.97;21.38;;;;;;;;;;4876487;29;20497;-74
2022/03/11 10:16:20;;;;;;;46.03;22.27;;;8.20;95.20;;;;;;4877054;29;20065;-74
2022/03/11 10:18:54;;;;;;;46.78;22.35;;;8.30;95.90;;;;;;4857493;29;20072;-74
2022/03/11 10:21:21;;;;;;;48.85;22.83;;;;;;;;;;4859009;29;20029;-74
2022/03/11 10:23:50;;;;;;;49.08;22.45;;;;;;;;;;4850943;29;20542;-74
2022/03/11 10:26:35;;;;;;;47.47;22.40;;;8.40;94.90;;;;;;4857434;29;20160;-74
2022/03/11 10:29:04;;;;;;;42.78;22.48;;;8.50;95.40;;;;;;4862430;29;20045;-74
2022/03/11 10:31:32;;;;;;;53.22;23.27;;;8.60;95.30;;;;;;4878811;29;20478;-74
2022/03/11 10:34:17;;;;;;;45.67;21.02;;;;;;;;;;4861747;29;20486;-73
2022/03/11 10:36:47;;;;;;;46.28;21.70;;;9.40;98.50;;;;;;4850578;29;20045;-73
2022/03/11 10:39:17;;;;;;;51.47;22.58;;;;;;;;;;4848095;29;20133;-74
2022/03/11 10:41:45;;;;;;;44.40;21.45;;;;;;;;;;4860362;29;20033;-74
2022/03/11 10:44:12;;;;;;;53.08;22.13;;;;;;;;;;4846232;29;20072;-74
2022/03/11 10:46:39;;;;;;;45.42;21.35;;;9.20;94.60;;;;;;4844809;29;20041;-74
2022/03/11 10:49:05;;;;;;;43.92;21.80;;;;;;;;;;4862030;29;20386;-73
2022/03/11 10:51:34;;;;;;;46.72;21.98;;;9.70;97.70;;;;;;4858859;29;20132;-74
2022/03/11 10:54:02;;;;;;;46.75;22.42;;;9.30;94.20;;;;;;4877542;29;20143;-74
2022/03/11 10:56:33;;;;;;;55.83;22.50;;;9.30;94.10;;;;;;4861059;29;20049;-74
2022/03/11 10:58:59;;;;;;;48.40;22.45;;;;;;;;;;4861781;29;20052;-74
2022/03/11 11:01:39;;;;;;;48.35;22.30;;;9.50;93.40;;;;;;4861736;29;20033;-74
2022/03/11 11:04:08;;;;;;;45.55;21.52;;;9.40;93.80;;;;;;4861470;29;20490;-74
2022/03/11 11:06:35;;;;;;;48.72;23.65;;;9.70;93.80;;;;;;4861699;29;20041;-74
2022/03/11 11:09:02;;;;;;;43.97;21.70;;;9.90;93.70;;;;;;4878389;29;20533;-74
2022/03/11 11:11:29;;;;;;;56.20;23.83;;;9.80;93.70;;;;;;4860143;29;20570;-74
2022/03/11 11:13:55;;;;;;;47.67;23.00;;;;;;;;;;4861291;29;20499;-75
2022/03/11 11:16:30;;;;;;;44.83;22.30;;;9.90;93.50;;;;;;4834289;29;20044;-74
2022/03/11 11:19:00;;;;;;;48.95;23.08;;;;;;;;;;4861863;29;20394;-74
2022/03/11 11:21:26;;;;;;;47.47;22.90;;;10.10;92.70;;;;;;4861548;29;20383;-74
2022/03/11 11:23:57;;;;;;;47.42;22.90;;;10.10;93.20;;;;;;4854112;29;20053;-74
2022/03/11 11:26:24;;;;;;;48.63;24.33;;;;;;;;;;4877439;29;20037;-74
2022/03/11 11:28:55;;;;;;;56.53;25.20;;;10.60;96.30;;;;;;4850280;29;20041;-74
2022/03/11 11:31:22;;;;;;;48.47;22.55;;;11.00;96.40;;;;;;4865554;29;20137;-74
2022/03/11 11:33:49;;;;;;;46.00;22.67;;;10.40;92.70;;;;;;4849595;29;20139;-74
2022/03/11 11:36:36;;;;;;;50.15;23.10;;;10.50;92.10;;;;;;4865379;29;20036;-74
2022/03/11 11:39:05;;;;;;;45.65;22.80;;;10.60;92.70;;;;;;4863752;29;20041;-75
2022/03/11 11:41:32;;;;;;;52.03;22.70;;;11.00;93.60;;;;;;4850400;29;20044;-74
2022/03/11 11:44:00;;;;;;;43.10;22.40;;;;;;;;;;4861277;29;20092;-74
2022/03/11 11:46:27;;;;;;;53.83;23.85;;;11.00;91.70;;;;;;4865454;29;20418;-74
2022/03/11 11:48:53;;;;;;;51.00;23.33;;;;;;;;;;4864694;29;20400;-74
2022/03/11 11:51:21;;;;;;;51.10;23.95;;;11.20;92.20;;;;;;4864876;29;20498;-74
2022/03/11 11:53:50;;;;;;;42.20;23.75;;;11.10;95.30;;;;;;4864735;29;20052;-74
2022/03/11 11:56:28;;;;;;;48.47;24.52;;;;;;;;;;4863957;29;20044;-73
2022/03/11 11:58:56;;;;;;;46.80;23.95;;;11.10;91.70;;;;;;4864455;29;20069;-74
2022/03/11 12:01:55;;;;;;;44.55;22.75;;;11.50;90.90;;;;;;4864423;29;20414;-74
2022/03/11 12:04:33;;;;;;;47.60;23.17;;;;;;;;;;4866061;29;20041;-74
2022/03/11 12:07:13;;;;;;;50.42;22.90;;;11.40;91.70;;;;;;4864819;29;20033;-74
2022/03/11 12:12:09;;;;;;;48.10;22.88;;;11.60;90.50;;;;;;4861610;29;20140;-74
2022/03/11 12:14:53;;;;;;;53.08;23.23;;;11.70;90.60;;;;;;4862344;29;20069;-74
2022/03/11 12:17:35;;;;;;;43.65;22.63;;;;;;;;;;4864672;29;20164;-79
2022/03/11 12:20:49;;;;;;;45.45;22.98;;;11.80;91.40;;;;;;4851907;29;20048;-74
2022/03/11 12:23:15;;;;;;;45.65;22.15;;;;;;;;;;4863606;29;20175;-74
2022/03/11 12:25:45;;;;;;;48.63;24.05;;;;;;;;;;4848485;29;20045;-74
2022/03/11 12:28:16;;;;;;;51.45;24.77;;;;;;;;;;4864785;29;20060;-74
2022/03/11 12:30:48;;;;;;;47.67;23.20;;;12.90;93.90;;;;;;4865670;29;20064;-74
2022/03/11 12:33:19;;;;;;;49.30;24.05;;;12.40;90.30;;;;;;4865538;29;20089;-74
2022/03/11 12:35:48;;;;;;;44.10;23.63;;;12.50;90.20;;;;;;4865696;29;20080;-74
2022/03/11 12:38:25;;;;;;;44.65;22.75;;;12.80;93.50;;;;;;4865438;29;20037;-74
2022/03/11 12:40:53;;;;;;;49.38;23.45;;;12.80;90.00;;;;;;4864250;29;20550;-74
2022/03/11 12:43:21;;;;;;;49.00;23.45;;;12.80;88.50;;;;;;4865208;29;20045;-74
2022/03/11 12:45:55;;;;;;;49.20;22.90;;;12.70;89.10;;;;;;4865209;29;20106;-74
2022/03/11 12:48:26;;;;;;;42.85;22.52;;;13.00;92.60;;;;;;4865177;29;20045;-74
2022/03/11 12:50:52;;;;;;;50.50;23.52;;;12.20;92.30;;;;;;4849540;29;20064;-74
2022/03/11 12:53:19;;;;;;;45.60;23.30;;;13.40;92.60;;;;;;4880777;29;20107;-74
2022/03/11 12:55:47;;;;;;;41.35;23.00;;;13.20;88.40;;;;;;4880530;29;20048;-74
2022/03/11 12:58:33;;;;;;;47.05;23.27;;;13.20;88.40;;;;;;4880530;29;20510;-74
2022/03/11 13:01:04;;;;;;;42.42;22.17;;;13.30;92.10;;;;;;4865075;29;20044;-74
2022/03/11 13:03:34;;;;;;;49.05;22.25;;;13.20;87.10;;;;;;4864873;29;20045;-74
2022/03/11 13:06:11;;;;;;;46.70;23.58;;;13.90;92.10;;;;;;4865131;29;20136;-74
2022/03/11 13:08:38;;;;;;;45.13;21.17;;;13.60;87.20;;;;;;4864986;29;20044;-74
2022/03/11 13:11:06;;;;;;;43.85;22.58;;;12.90;91.60;;;;;;4864829;29;20514;-74
2022/03/11 13:13:33;;;;;;;46.17;22.98;;;;;;;;;;4864898;29;20100;-74
2022/03/11 13:16:01;;;;;;;42.83;22.05;;;13.60;85.70;;;;;;4864801;29;20049;-74
2022/03/11 13:18:27;;;;;;;48.40;23.10;;;;;;;;;;4864787;29;20057;-74
2022/03/11 13:21:03;;;;;;;47.17;23.35;;;13.90;86.00;;;;;;4864802;29;20037;-74
2022/03/11 13:23:39;;;;;;;47.45;22.65;;;;;;;;;;4864587;29;20053;-74
2022/03/11 13:26:18;;;;;;;42.70;21.13;;;13.80;85.20;;;;;;4864481;29;20043;-74
2022/03/11 13:28:47;;;;;;;47.63;22.60;;;14.20;85.30;;;;;;4864668;29;20037;-74
2022/03/11 13:31:20;;;;;;;49.10;22.52;;;14.60;90.80;;;;;;4864415;29;20561;-74
2022/03/11 13:34:00;;;;;;;40.83;21.50;;;14.00;90.50;;;;;;4864369;29;20053;-74
2022/03/11 13:36:31;;;;;;;44.00;23.85;;;14.20;84.20;;;;;;4879871;29;20037;-74
2022/03/11 13:39:07;;;;;;;43.33;23.23;;;14.50;90.90;;;;;;4864325;29;20047;-74
2022/03/11 13:41:33;;;;;;;42.83;21.67;;;;;;;;;;4864161;29;20052;-74
2022/03/11 13:44:13;;;;;;;41.08;22.60;;;14.30;90.80;;;;;;4863988;29;20045;-74
2022/03/11 13:46:42;;;;;;;53.85;21.42;;;14.40;83.60;;;;;;4864153;29;20052;-74
2022/03/11 13:49:10;;;;;;;44.13;22.58;;;14.60;83.50;;;;;;4864033;29;20056;-74